createdAt,value
2023-02-13T00:01:45.749Z,102791.91
2023-02-13T00:07:08.079Z,102787.52
2023-02-13T00:12:31.000Z,102791.94
2023-02-13T00:17:53.584Z,102778.66
2023-02-13T00:23:17.577Z,102779.55
2023-02-13T00:28:41.097Z,102775.97
2023-02-13T00:34:03.686Z,102773.34
2023-02-13T00:39:26.034Z,102772.43
2023-02-13T00:44:48.325Z,102769.84
2023-02-13T00:50:10.706Z,102766.33
2023-02-13T00:55:33.871Z,102759.28
2023-02-13T01:00:57.997Z,102762.89
2023-02-13T01:06:20.703Z,102762.05
2023-02-13T01:11:42.933Z,102744.35
2023-02-13T01:17:05.367Z,102755.00
2023-02-13T01:22:28.341Z,102745.23
2023-02-13T01:27:51.002Z,102746.11
2023-02-13T01:33:13.223Z,102746.11
2023-02-13T01:38:35.909Z,102747.92
2023-02-13T01:44:07.879Z,102742.72
2023-02-13T01:49:38.749Z,102743.66
2023-02-13T01:55:01.914Z,102730.33
2023-02-13T02:00:27.548Z,102727.73
2023-02-13T02:05:51.899Z,102729.42
2023-02-13T02:11:18.798Z,102720.59
2023-02-13T02:16:41.914Z,102723.32
2023-02-13T02:22:17.997Z,102721.59
2023-02-13T02:27:57.286Z,102726.83
2023-02-13T02:33:50.300Z,102723.32
2023-02-13T02:39:28.696Z,102724.13
2023-02-13T02:45:13.907Z,102724.09
2023-02-13T02:50:48.545Z,102728.55
2023-02-13T02:56:34.777Z,102723.97
2023-02-13T03:02:20.336Z,102725.69
2023-02-13T03:07:45.874Z,102726.57
2023-02-13T03:13:23.523Z,102727.34
2023-02-13T03:19:08.665Z,102719.33
2023-02-13T03:24:42.642Z,102722.91
2023-02-13T03:30:17.177Z,102726.60
2023-02-13T03:36:55.747Z,102719.62
2023-02-13T03:42:24.868Z,102737.44
2023-02-13T03:47:50.173Z,102745.51
2023-02-13T03:53:18.080Z,102745.45
2023-02-13T03:59:09.829Z,102744.48
2023-02-13T04:04:55.921Z,102747.92
2023-02-13T04:10:23.707Z,102749.64
2023-02-13T04:16:10.618Z,102748.73
2023-02-13T04:21:34.749Z,102752.14
2023-02-13T04:27:00.449Z,102745.07
2023-02-13T04:32:25.438Z,102742.44
2023-02-13T04:37:49.381Z,102742.44
2023-02-13T04:43:13.930Z,102743.45
2023-02-13T04:48:38.891Z,102746.01
2023-02-13T04:54:02.120Z,102734.55
2023-02-13T04:59:26.832Z,102741.59
2023-02-13T05:04:51.267Z,102740.62
2023-02-13T05:10:16.676Z,102737.89
2023-02-13T05:15:41.437Z,102738.80
2023-02-13T05:21:23.836Z,102750.27
2023-02-13T05:26:48.571Z,102743.22
2023-02-13T05:32:13.918Z,102748.54
2023-02-13T05:37:38.029Z,102757.41
2023-02-13T05:43:02.412Z,102747.63
2023-02-13T05:48:27.136Z,102752.98
2023-02-13T05:53:50.530Z,102733.55
2023-02-13T05:59:13.194Z,102737.05
2023-02-13T06:04:37.203Z,102741.50
2023-02-13T06:10:03.129Z,102739.00
2023-02-13T06:15:26.941Z,102741.63
2023-02-13T06:20:51.786Z,102742.50
2023-02-13T06:26:20.220Z,102746.08
2023-02-13T06:31:44.948Z,102764.73
2023-02-13T06:37:09.634Z,102756.88
2023-02-13T06:42:33.335Z,102772.84
2023-02-13T06:47:58.687Z,102763.73
2023-02-13T06:53:22.833Z,102770.84
2023-02-13T06:58:46.596Z,102764.52
2023-02-13T07:04:08.886Z,102783.20
2023-02-13T07:09:31.237Z,102780.58
2023-02-13T07:14:54.249Z,102773.34
2023-02-13T07:20:17.876Z,102783.11
2023-02-13T07:25:40.847Z,102776.88
2023-02-13T07:31:03.617Z,102779.45
2023-02-13T07:36:26.745Z,102766.95
2023-02-13T07:41:49.053Z,102773.95
2023-02-13T07:47:11.475Z,102771.09
2023-02-13T07:52:33.869Z,102775.30
2023-02-13T07:57:56.097Z,102777.05
2023-02-13T08:03:18.880Z,102764.55
2023-02-13T08:08:42.173Z,102757.31
2023-02-13T08:14:04.464Z,102757.25
2023-02-13T08:19:26.685Z,102757.25
2023-02-13T08:24:49.018Z,102759.84
2023-02-13T08:30:13.216Z,102737.57
2023-02-13T08:35:36.111Z,102739.25
2023-02-13T08:40:59.162Z,102733.88
2023-02-13T08:46:22.639Z,102744.50
2023-02-13T08:51:45.013Z,102731.09
2023-02-13T08:57:09.420Z,102744.31
2023-02-13T09:02:32.198Z,102729.16
2023-02-13T09:07:54.452Z,102745.98
2023-02-13T09:13:17.769Z,102761.09
2023-02-13T09:18:41.200Z,102737.91
2023-02-13T09:24:03.697Z,102746.73
2023-02-13T09:29:25.898Z,102743.16
2023-02-13T09:34:48.146Z,102751.08
2023-02-13T09:40:10.465Z,102735.04
2023-02-13T09:45:34.661Z,102748.30
2023-02-13T09:50:58.089Z,102745.59
2023-02-13T09:56:37.509Z,102739.30
2023-02-13T10:02:02.768Z,102756.92
2023-02-13T10:07:38.928Z,102744.34
2023-02-13T10:13:32.616Z,102751.42
2023-02-13T10:19:06.998Z,102748.67
2023-02-13T10:24:34.759Z,102739.75
2023-02-13T10:30:19.783Z,102756.55
2023-02-13T10:35:56.758Z,102758.17
2023-02-13T10:41:32.431Z,102752.13
2023-02-13T10:47:22.122Z,102740.46
2023-02-13T10:53:00.807Z,102735.04
2023-02-13T10:58:49.066Z,102728.78
2023-02-13T11:04:16.295Z,102727.61
2023-02-13T11:09:40.999Z,102723.14
2023-02-13T11:20:50.669Z,102723.52
2023-02-13T11:26:23.930Z,102712.25
2023-02-13T11:31:58.350Z,102697.97
2023-02-13T11:37:36.989Z,102697.97
2023-02-13T11:43:02.420Z,102710.41
2023-02-13T11:48:30.643Z,102701.52
2023-02-13T11:53:59.210Z,102702.34
2023-02-13T11:59:22.988Z,102693.42
2023-02-13T12:04:45.208Z,102691.54
2023-02-13T12:10:24.971Z,102686.16
2023-02-13T12:15:51.092Z,102690.63
2023-02-13T12:21:44.945Z,102663.01
2023-02-13T12:27:34.404Z,102659.41
2023-02-13T12:39:14.800Z,102643.93
2023-02-13T12:45:03.392Z,102620.31
2023-02-13T12:50:54.703Z,102650.48
2023-02-13T12:56:32.390Z,102643.21
2023-02-13T13:02:32.567Z,102641.50
2023-02-13T13:08:17.480Z,102628.98
2023-02-13T13:14:26.208Z,102631.66
2023-02-13T13:20:20.371Z,102630.72
2023-02-13T13:26:08.448Z,102659.31
2023-02-13T13:31:33.381Z,102663.01
2023-02-13T13:43:12.738Z,102629.23
2023-02-13T13:49:17.272Z,102640.24
2023-02-13T13:54:43.824Z,102643.97
2023-02-13T14:00:17.427Z,102634.27
2023-02-13T14:05:43.476Z,102654.01
2023-02-13T14:11:12.146Z,102668.27
2023-02-13T14:16:53.117Z,102657.59
2023-02-13T14:22:42.053Z,102670.98
2023-02-13T14:28:11.545Z,102663.10
2023-02-13T14:33:43.074Z,102663.06
2023-02-13T14:39:12.624Z,102658.78
2023-02-13T14:45:04.787Z,102643.47
2023-02-13T14:50:34.566Z,102650.92
2023-02-13T14:55:52.783Z,102639.42
2023-02-13T15:01:31.736Z,102663.47
2023-02-13T15:07:02.911Z,102648.47
2023-02-13T15:12:45.050Z,102617.35
2023-02-13T15:18:10.611Z,102617.44
2023-02-13T15:23:39.612Z,102610.36
2023-02-13T15:29:35.222Z,102608.66
2023-02-13T15:34:51.766Z,102598.95
2023-02-13T15:40:28.916Z,102602.55
2023-02-13T15:45:53.816Z,102605.38
2023-02-13T15:51:17.085Z,102588.47
2023-02-13T15:56:40.514Z,102593.06
2023-02-13T16:02:05.765Z,102589.86
2023-02-13T16:07:30.802Z,102591.00
2023-02-13T16:12:54.958Z,102604.64
2023-02-13T16:18:21.698Z,102608.55
2023-02-13T16:23:44.625Z,102618.28
2023-02-13T16:29:07.642Z,102625.36
2023-02-13T16:34:42.685Z,102633.27
2023-02-13T16:40:07.175Z,102628.50
2023-02-13T16:45:46.124Z,102616.17
2023-02-13T16:51:10.404Z,102599.64
2023-02-13T16:56:32.886Z,102612.35
2023-02-13T17:01:56.097Z,102615.39
2023-02-13T17:07:21.238Z,102614.77
2023-02-13T17:12:46.464Z,102615.05
2023-02-13T17:18:09.118Z,102612.56
2023-02-13T17:23:34.740Z,102618.19
2023-02-13T17:28:57.131Z,102612.83
2023-02-13T17:34:19.476Z,102604.05
2023-02-13T17:39:41.676Z,102614.48
2023-02-13T17:45:06.292Z,102618.83
2023-02-13T17:50:30.881Z,102627.64
2023-02-13T17:55:53.656Z,102654.25
2023-02-13T18:01:17.065Z,102655.09
2023-02-13T18:06:39.317Z,102659.34
2023-02-13T18:12:05.588Z,102668.06
2023-02-13T18:17:26.770Z,102681.23
2023-02-13T18:28:21.922Z,102688.09
2023-02-13T18:33:46.402Z,102697.23
2023-02-13T18:39:10.058Z,102699.98
2023-02-13T18:44:32.394Z,102707.94
2023-02-13T18:49:54.620Z,102703.53
2023-02-13T18:55:17.546Z,102703.59
2023-02-13T19:00:40.063Z,102696.75
2023-02-13T19:06:04.065Z,102698.66
2023-02-13T19:11:29.647Z,102705.09
2023-02-13T19:16:53.819Z,102705.30
2023-02-13T19:22:16.693Z,102700.36
2023-02-13T19:27:41.793Z,102695.04
2023-02-13T19:33:08.152Z,102704.38
2023-02-13T19:38:31.882Z,102707.27
2023-02-13T19:43:54.745Z,102706.67
2023-02-13T19:49:19.215Z,102703.20
2023-02-13T19:54:42.189Z,102712.21
2023-02-13T20:00:05.466Z,102714.89
2023-02-13T20:05:28.617Z,102714.09
2023-02-13T20:10:52.989Z,102730.03
2023-02-13T20:16:19.583Z,102732.73
2023-02-13T20:21:42.324Z,102734.59
2023-02-13T20:27:04.832Z,102747.90
2023-02-13T20:32:28.243Z,102741.76
2023-02-13T20:37:51.651Z,102744.42
2023-02-13T20:43:13.918Z,102748.87
2023-02-13T20:48:36.889Z,102756.91
2023-02-13T20:54:00.663Z,102755.22
2023-02-13T20:59:24.538Z,102755.29
2023-02-13T21:04:46.915Z,102756.23
2023-02-13T21:10:10.569Z,102747.48
2023-02-13T21:15:35.522Z,102745.83
2023-02-13T21:20:58.255Z,102750.30
2023-02-13T21:26:26.620Z,102745.02
2023-02-13T21:31:52.486Z,102749.42
2023-02-13T21:37:14.802Z,102764.44
2023-02-13T21:42:37.103Z,102760.09
2023-02-13T21:48:01.059Z,102753.06
2023-02-13T21:53:24.842Z,102749.53
2023-02-13T21:58:48.683Z,102747.80
2023-02-13T22:04:14.075Z,102751.38
2023-02-13T22:09:38.216Z,102758.41
2023-02-13T22:15:01.743Z,102753.95
2023-02-13T22:20:24.786Z,102752.14
2023-02-13T22:25:49.637Z,102752.97
2023-02-13T22:31:17.127Z,102739.63
2023-02-13T22:36:40.874Z,102747.56
2023-02-13T22:42:03.221Z,102751.87
2023-02-13T22:47:25.440Z,102745.70
2023-02-13T22:52:47.664Z,102750.95
2023-02-13T22:58:10.921Z,102750.96
2023-02-13T23:03:34.813Z,102745.71
2023-02-13T23:08:58.378Z,102750.99
2023-02-13T23:14:21.782Z,102752.78
2023-02-13T23:19:46.565Z,102752.84
2023-02-13T23:25:09.183Z,102749.35
2023-02-13T23:30:33.233Z,102760.84
2023-02-13T23:35:55.412Z,102761.78
2023-02-13T23:41:20.719Z,102762.69
2023-02-13T23:46:42.983Z,102779.48
2023-02-13T23:52:06.189Z,102793.64
2023-02-13T23:57:29.209Z,102790.08
